Accueil
METAR-TAF:

METAR-TAF

Aéroports :

Nan, Thaïlande

latitude: 18-46N, longitude: 100-46E, altitude: 200 m

Observation

Le bulletin a été fait il y a 21 minutes, à 04:00 UTC
Vent 5 kt de sud, variant entre est/sud-est et sud-ouest
Température 29°C
Humidité 74%
Pression 1010 hPa
Visibilité 10 km ou plus
Nuages fragmentés à une hauteur de 2500 ft

METAR: VTCN 260400Z 17005KT 110V220 9999 BKN025 29/24 Q1010 NOSIG

Heure: 11:21 (04:21 UTC)

Prévision

Le bulletin a été fait il y a 5 heures et 21 minutes, à 23:00 UTC
Prévision valable du 26 à 00 UTC au 26 à 24 UTC
Vent 5 kt de sud-ouest
Visibilité 10 km ou plus
Quelques nuages à une hauteur de 3000 ft

TAF: VTCN 252300Z 2600/2624 22005KT 9999 FEW030

Observations et prévisions météorologiques de plus de 4000 aéroports (messages METAR et TAF).

Les stations disponibles sont représentées par des disques jaunes et rouges sur la carte.

Passer la souris dessus pour voir le nom de la station.

Cliquer dessus pour voir les observations et prévisions météorologiques.

Pour changer de carte: cliquez sur les boutons verts avec une croix noire pour zoomer, sur le bouton vert avec un tiret pour effectuer un zoom arrière, ou sur les flèches vertes pour les cartes adjacentes.


METAR-TAF: